Terminal Aerodrome Forecast
Issued by NWS

Home | Current Version | Previous Version | Text Only | Print | Product List | Glossary On
Versions: 1 2 3 4 5 6 7 8 9 10 11 12
000
FTUS45 KABQ 180539
TAFLVS
TAF
KLVS 180539Z 1806/1906 01005KT P6SM FEW250
     FM182000 14009KT P6SM BKN250
     FM190100 03007KT P6SM BKN250=

USA.gov is the U.S. government's official web portal to all federal, state and local government web resources and services.